createdAt,value
2018-07-27T00:01:01.943Z,24.50
2018-07-27T00:02:02.510Z,24.45
2018-07-27T00:03:03.076Z,24.48
2018-07-27T00:04:03.629Z,24.42
2018-07-27T00:05:04.186Z,24.45
2018-07-27T00:06:04.741Z,24.42
2018-07-27T00:07:05.298Z,24.38
2018-07-27T00:08:05.858Z,24.35
2018-07-27T00:09:06.418Z,24.45
2018-07-27T00:10:06.971Z,24.41
2018-07-27T00:11:07.523Z,24.41
2018-07-27T00:12:08.081Z,24.38
2018-07-27T00:13:08.633Z,24.27
2018-07-27T00:14:09.194Z,24.33
2018-07-27T00:15:09.752Z,24.21
2018-07-27T00:16:10.306Z,24.27
2018-07-27T00:17:10.875Z,24.21
2018-07-27T00:18:11.425Z,24.17
2018-07-27T00:19:11.977Z,24.14
2018-07-27T00:20:12.528Z,24.21
2018-07-27T00:21:13.082Z,24.09
2018-07-27T00:22:13.640Z,24.09
2018-07-27T00:23:14.196Z,24.11
2018-07-27T00:24:14.759Z,24.16
2018-07-27T00:25:15.311Z,24.11
2018-07-27T00:26:15.863Z,24.14
2018-07-27T00:27:16.420Z,24.11
2018-07-27T00:28:16.981Z,24.13
2018-07-27T00:29:17.541Z,24.13
2018-07-27T00:30:18.098Z,24.16
2018-07-27T00:31:18.656Z,24.17
2018-07-27T00:32:19.210Z,24.17
2018-07-27T00:33:19.770Z,24.14
2018-07-27T00:34:20.321Z,24.09
2018-07-27T00:35:21.003Z,24.08
2018-07-27T00:36:21.500Z,24.03
2018-07-27T00:37:22.150Z,24.06
2018-07-27T00:38:22.686Z,24.11
2018-07-27T00:39:23.242Z,24.11
2018-07-27T00:40:23.801Z,24.17
2018-07-27T00:41:24.358Z,24.13
2018-07-27T00:42:25.119Z,24.08
2018-07-27T00:43:25.668Z,24.11
2018-07-27T00:44:26.234Z,24.09
2018-07-27T00:45:26.800Z,24.14
2018-07-27T00:46:27.387Z,24.01
2018-07-27T00:47:27.914Z,23.94
2018-07-27T00:48:28.479Z,23.81
2018-07-27T00:49:29.035Z,23.84
2018-07-27T00:50:29.800Z,23.84
2018-07-27T00:51:30.354Z,23.80
2018-07-27T00:52:30.912Z,23.68
2018-07-27T00:53:31.578Z,23.53
2018-07-27T00:54:32.265Z,23.54
2018-07-27T00:55:32.827Z,23.53
2018-07-27T00:56:33.385Z,23.54
2018-07-27T00:57:33.938Z,23.51
2018-07-27T00:58:34.496Z,23.51
2018-07-27T00:59:35.053Z,23.51
2018-07-27T01:00:35.607Z,23.68
2018-07-27T01:01:36.159Z,23.61
2018-07-27T01:02:36.711Z,23.68
2018-07-27T01:03:37.272Z,23.71
2018-07-27T01:04:37.827Z,23.62
2018-07-27T01:05:38.380Z,23.71
2018-07-27T01:06:38.943Z,23.71
2018-07-27T01:07:39.493Z,23.77
2018-07-27T01:08:40.049Z,23.80
2018-07-27T01:09:40.604Z,23.77
2018-07-27T01:10:41.157Z,23.87
2018-07-27T01:11:41.713Z,23.94
2018-07-27T01:12:42.267Z,24.01
2018-07-27T01:13:42.814Z,23.86
2018-07-27T01:14:43.364Z,23.96
2018-07-27T01:15:43.917Z,23.84
2018-07-27T01:16:44.474Z,23.90
2018-07-27T01:17:45.034Z,23.98
2018-07-27T01:18:45.593Z,23.88
2018-07-27T01:19:46.140Z,23.86
2018-07-27T01:20:46.695Z,24.01
2018-07-27T01:21:47.252Z,23.90
2018-07-27T01:22:47.812Z,23.91
2018-07-27T01:23:48.368Z,23.96
2018-07-27T01:24:48.924Z,23.91
2018-07-27T01:25:49.483Z,23.99
2018-07-27T01:26:50.031Z,23.98
2018-07-27T01:27:50.589Z,24.02
2018-07-27T01:28:51.144Z,24.02
2018-07-27T01:29:51.702Z,24.01
2018-07-27T01:30:52.264Z,24.11
2018-07-27T01:31:52.819Z,24.06
2018-07-27T01:32:53.376Z,24.06
2018-07-27T01:33:53.923Z,23.99
2018-07-27T01:34:54.485Z,23.96
2018-07-27T01:35:55.039Z,24.05
2018-07-27T01:36:55.590Z,23.98
2018-07-27T01:37:56.150Z,24.06
2018-07-27T01:38:56.706Z,23.96
2018-07-27T01:39:57.264Z,24.11
2018-07-27T01:40:57.830Z,24.06
2018-07-27T01:41:58.382Z,24.11
2018-07-27T01:42:58.939Z,23.99
2018-07-27T01:43:59.498Z,23.98
2018-07-27T01:45:00.048Z,24.11
2018-07-27T01:46:00.600Z,24.03
2018-07-27T01:47:01.157Z,24.13
2018-07-27T01:48:01.713Z,24.06
2018-07-27T01:49:02.265Z,24.03
2018-07-27T01:50:02.823Z,24.16
2018-07-27T01:51:03.441Z,24.11
2018-07-27T01:52:03.935Z,24.11
2018-07-27T01:53:04.489Z,24.02
2018-07-27T01:54:05.048Z,24.05
2018-07-27T01:55:05.607Z,23.96
2018-07-27T01:56:06.164Z,23.99
2018-07-27T01:57:06.719Z,23.91
2018-07-27T01:58:07.278Z,23.94
2018-07-27T01:59:07.834Z,23.88
2018-07-27T02:00:08.392Z,23.95
2018-07-27T02:01:08.947Z,23.95
2018-07-27T02:02:09.500Z,23.79
2018-07-27T02:03:10.056Z,23.80
2018-07-27T02:04:10.609Z,23.80
2018-07-27T02:05:11.166Z,23.79
2018-07-27T02:06:11.727Z,23.68
2018-07-27T02:07:12.277Z,23.64
2018-07-27T02:08:12.837Z,23.65
2018-07-27T02:09:13.386Z,23.58
2018-07-27T02:10:13.942Z,23.54
2018-07-27T02:11:14.499Z,23.47
2018-07-27T02:12:15.052Z,23.58
2018-07-27T02:13:15.609Z,23.50
2018-07-27T02:14:16.166Z,23.41
2018-07-27T02:15:16.718Z,23.43
2018-07-27T02:16:17.275Z,23.40
2018-07-27T02:17:17.834Z,23.49
2018-07-27T02:18:18.389Z,23.41
2018-07-27T02:19:18.943Z,23.34
2018-07-27T02:20:19.500Z,23.37
2018-07-27T02:21:20.053Z,23.41
2018-07-27T02:22:20.612Z,23.35
2018-07-27T02:23:21.171Z,23.25
2018-07-27T02:24:21.738Z,23.20
2018-07-27T02:25:22.320Z,23.13
2018-07-27T02:26:22.852Z,23.13
2018-07-27T02:27:23.408Z,23.10
2018-07-27T02:28:23.966Z,23.03
2018-07-27T02:29:24.520Z,23.06
2018-07-27T02:30:25.075Z,22.95
2018-07-27T02:31:25.634Z,22.94
2018-07-27T02:32:26.187Z,22.97
2018-07-27T02:33:26.737Z,23.02
2018-07-27T02:34:27.295Z,22.93
2018-07-27T02:35:27.850Z,22.81
2018-07-27T02:36:28.408Z,22.76
2018-07-27T02:37:28.958Z,22.76
2018-07-27T02:38:29.518Z,22.76
2018-07-27T02:39:30.071Z,22.69
2018-07-27T02:40:30.626Z,22.70
2018-07-27T02:41:31.182Z,22.70
2018-07-27T02:42:31.736Z,22.66
2018-07-27T02:43:32.298Z,22.68
2018-07-27T02:44:32.851Z,22.63
2018-07-27T02:45:33.412Z,22.60
2018-07-27T02:46:33.968Z,22.57
2018-07-27T02:47:34.525Z,22.54
2018-07-27T02:48:35.079Z,22.55
2018-07-27T02:49:35.642Z,22.57
2018-07-27T02:50:36.198Z,22.57
2018-07-27T02:51:36.757Z,22.58
2018-07-27T02:52:37.301Z,22.53
2018-07-27T02:53:37.861Z,22.50
2018-07-27T02:54:38.421Z,22.50
2018-07-27T02:55:38.978Z,22.42
2018-07-27T02:56:39.544Z,22.46
2018-07-27T02:57:40.089Z,22.44
2018-07-27T02:58:40.643Z,22.47
2018-07-27T02:59:41.199Z,22.42
2018-07-27T03:00:41.756Z,22.39
2018-07-27T03:01:42.315Z,22.36
2018-07-27T03:02:42.874Z,22.29
2018-07-27T03:03:43.433Z,22.29
2018-07-27T03:04:43.989Z,22.28
2018-07-27T03:05:44.546Z,22.35
2018-07-27T03:06:45.107Z,22.21
2018-07-27T03:07:45.666Z,22.38
2018-07-27T03:08:46.218Z,22.35
2018-07-27T03:09:46.859Z,22.26
2018-07-27T03:10:47.336Z,22.20
2018-07-27T03:11:47.889Z,22.31
2018-07-27T03:12:48.438Z,22.24
2018-07-27T03:13:48.996Z,22.24
2018-07-27T03:14:49.554Z,22.28
2018-07-27T03:15:50.108Z,22.38
2018-07-27T03:16:50.656Z,22.26
2018-07-27T03:17:51.211Z,22.24
2018-07-27T03:18:51.759Z,22.35
2018-07-27T03:19:52.315Z,22.29
2018-07-27T03:20:52.870Z,22.26
2018-07-27T03:21:53.430Z,22.31
2018-07-27T03:22:53.990Z,22.23
2018-07-27T03:23:54.548Z,22.32
2018-07-27T03:24:55.104Z,22.29
2018-07-27T03:25:55.667Z,22.31
2018-07-27T03:26:56.213Z,22.36
2018-07-27T03:27:56.773Z,22.35
2018-07-27T03:28:57.333Z,22.29
2018-07-27T03:29:57.893Z,22.23
2018-07-27T03:30:58.453Z,22.39
2018-07-27T03:31:59.010Z,22.33
2018-07-27T03:32:59.562Z,22.47
2018-07-27T03:34:00.116Z,22.38
2018-07-27T03:35:00.666Z,22.42
2018-07-27T03:36:01.223Z,22.42
2018-07-27T03:37:01.774Z,22.46
2018-07-27T03:38:02.341Z,22.38
2018-07-27T03:39:02.902Z,22.38
2018-07-27T03:40:03.463Z,22.29
2018-07-27T03:41:04.016Z,22.28
2018-07-27T03:42:04.601Z,22.28
2018-07-27T03:43:05.137Z,22.24
2018-07-27T03:44:05.695Z,22.24
2018-07-27T03:45:06.255Z,22.26
2018-07-27T03:46:06.806Z,22.28
2018-07-27T03:47:07.366Z,22.24
2018-07-27T03:48:07.921Z,22.21
2018-07-27T03:49:08.479Z,22.26
2018-07-27T03:50:09.032Z,22.31
2018-07-27T03:51:09.588Z,22.31
2018-07-27T03:52:10.147Z,22.21
2018-07-27T03:53:10.710Z,22.26
2018-07-27T03:54:11.263Z,22.29
2018-07-27T03:55:11.815Z,22.24
2018-07-27T03:56:12.378Z,22.29
2018-07-27T03:57:12.944Z,22.23
2018-07-27T03:58:13.512Z,22.23
2018-07-27T03:59:14.058Z,22.26
2018-07-27T04:00:14.611Z,22.18
2018-07-27T04:01:15.173Z,22.21
2018-07-27T04:02:15.763Z,22.16
2018-07-27T04:03:16.290Z,22.20
2018-07-27T04:04:16.848Z,22.20
2018-07-27T04:05:17.400Z,22.14
2018-07-27T04:06:17.961Z,22.13
2018-07-27T04:07:18.548Z,22.10
2018-07-27T04:08:19.091Z,22.24
2018-07-27T04:09:19.660Z,22.28
2018-07-27T04:10:20.220Z,22.18
2018-07-27T04:11:20.779Z,22.18
2018-07-27T04:12:21.334Z,22.28
2018-07-27T04:13:21.898Z,22.18
2018-07-27T04:14:22.462Z,22.18
2018-07-27T04:15:23.019Z,22.16
2018-07-27T04:16:23.580Z,22.14
2018-07-27T04:17:24.145Z,22.17
2018-07-27T04:18:24.704Z,22.03
2018-07-27T04:19:25.268Z,22.03
2018-07-27T04:20:25.833Z,22.14
2018-07-27T04:21:26.388Z,22.13
2018-07-27T04:22:26.982Z,22.18
2018-07-27T04:23:27.508Z,22.08
2018-07-27T04:24:28.065Z,22.05
2018-07-27T04:25:28.618Z,22.02
2018-07-27T04:26:29.184Z,22.05
2018-07-27T04:27:29.738Z,22.28
2018-07-27T04:28:30.299Z,22.18
2018-07-27T04:29:30.860Z,22.24
2018-07-27T04:30:31.423Z,22.32
2018-07-27T04:31:31.983Z,22.32
2018-07-27T04:32:32.543Z,22.36
2018-07-27T04:33:33.104Z,22.44
2018-07-27T04:34:33.665Z,22.46
2018-07-27T04:35:34.227Z,22.54
2018-07-27T04:36:34.782Z,22.63
2018-07-27T04:37:35.344Z,22.69
2018-07-27T04:38:35.901Z,22.73
2018-07-27T04:39:36.456Z,22.78
2018-07-27T04:40:37.021Z,22.78
2018-07-27T04:41:37.575Z,22.97
2018-07-27T04:42:38.138Z,23.21
2018-07-27T04:43:38.703Z,23.44
2018-07-27T04:44:39.265Z,23.99
2018-07-27T04:45:39.834Z,24.38
2018-07-27T04:46:40.414Z,24.80
2018-07-27T04:47:40.964Z,25.01
2018-07-27T04:48:41.528Z,25.50
2018-07-27T04:49:42.093Z,25.81
2018-07-27T04:50:42.663Z,26.12
2018-07-27T04:51:43.231Z,26.47
2018-07-27T04:52:43.802Z,26.76
2018-07-27T04:53:44.364Z,26.93
2018-07-27T04:54:44.928Z,27.29
2018-07-27T04:55:45.492Z,27.43
2018-07-27T04:56:46.060Z,27.39
2018-07-27T04:57:46.619Z,27.36
2018-07-27T04:58:47.183Z,27.45
2018-07-27T04:59:47.751Z,27.58
2018-07-27T05:00:48.311Z,27.50
2018-07-27T05:01:48.873Z,27.45
2018-07-27T05:02:49.440Z,27.48
2018-07-27T05:03:50.012Z,27.76
2018-07-27T05:04:50.567Z,27.98
2018-07-27T05:05:51.131Z,28.26
2018-07-27T05:06:51.696Z,28.52
2018-07-27T05:07:52.272Z,28.62
2018-07-27T05:08:52.841Z,28.51
2018-07-27T05:09:53.408Z,28.65
2018-07-27T05:10:53.978Z,28.69
2018-07-27T05:11:54.615Z,28.57
2018-07-27T05:12:55.111Z,28.42
2018-07-27T05:13:55.675Z,28.48
2018-07-27T05:14:56.248Z,28.45
2018-07-27T05:15:56.841Z,28.79
2018-07-27T05:16:57.389Z,28.92
2018-07-27T05:17:57.961Z,29.17
2018-07-27T05:18:58.532Z,29.35
2018-07-27T05:19:59.095Z,29.59
2018-07-27T05:20:59.666Z,29.56
2018-07-27T05:22:00.241Z,29.67
2018-07-27T05:23:00.820Z,29.42
2018-07-27T05:24:01.389Z,29.47
2018-07-27T05:25:01.957Z,29.87
2018-07-27T05:26:02.530Z,30.08
2018-07-27T05:27:03.105Z,30.27
2018-07-27T05:28:03.681Z,30.64
2018-07-27T05:29:04.255Z,30.95
2018-07-27T05:30:04.831Z,31.31
2018-07-27T05:31:05.401Z,31.55
2018-07-27T05:32:05.977Z,31.74
2018-07-27T05:33:06.553Z,31.97
2018-07-27T05:34:07.127Z,32.11
2018-07-27T05:35:07.706Z,32.29
2018-07-27T05:36:08.276Z,32.39
2018-07-27T05:37:08.853Z,32.55
2018-07-27T05:38:09.426Z,32.59
2018-07-27T05:39:10.005Z,32.55
2018-07-27T05:40:10.575Z,32.12
2018-07-27T05:41:11.150Z,31.50
2018-07-27T05:42:11.726Z,31.10
2018-07-27T05:43:12.321Z,30.68
2018-07-27T05:44:12.879Z,30.40
2018-07-27T05:45:13.472Z,30.19
2018-07-27T05:46:14.026Z,29.93
2018-07-27T05:47:14.598Z,29.81
2018-07-27T05:48:15.158Z,29.52
2018-07-27T05:49:15.731Z,29.42
2018-07-27T05:50:16.308Z,29.41
2018-07-27T05:51:16.882Z,29.29
2018-07-27T05:52:17.454Z,29.37
2018-07-27T05:53:18.027Z,29.37
2018-07-27T05:54:18.602Z,29.34
2018-07-27T05:55:19.171Z,29.32
2018-07-27T05:56:19.745Z,29.72
2018-07-27T05:57:20.312Z,30.12
2018-07-27T05:58:20.885Z,30.43
2018-07-27T05:59:21.478Z,30.72
2018-07-27T06:00:22.036Z,30.97
2018-07-27T06:01:22.620Z,31.24
2018-07-27T06:02:23.186Z,31.49
2018-07-27T06:03:23.761Z,31.47
2018-07-27T06:04:24.346Z,31.58
2018-07-27T06:05:24.919Z,32.03
2018-07-27T06:06:25.575Z,32.02
2018-07-27T06:07:26.112Z,32.19
2018-07-27T06:08:26.692Z,32.44
2018-07-27T06:09:27.267Z,32.44
2018-07-27T06:10:27.852Z,32.66
2018-07-27T06:11:28.422Z,33.14
2018-07-27T06:12:28.993Z,33.42
2018-07-27T06:13:29.573Z,33.20
2018-07-27T06:14:30.208Z,33.10
2018-07-27T06:15:30.728Z,33.28
2018-07-27T06:16:31.308Z,33.43
2018-07-27T06:17:31.883Z,33.76
2018-07-27T06:18:32.456Z,33.92
2018-07-27T06:19:33.035Z,34.01
2018-07-27T06:20:33.604Z,33.77
2018-07-27T06:21:34.172Z,33.83
2018-07-27T06:22:34.752Z,34.04
2018-07-27T06:23:35.328Z,34.26
2018-07-27T06:24:35.900Z,34.53
2018-07-27T06:25:36.507Z,34.58
2018-07-27T06:26:37.051Z,34.76
2018-07-27T06:27:37.630Z,34.88
2018-07-27T06:28:38.205Z,35.21
2018-07-27T06:29:38.807Z,35.29
2018-07-27T06:30:39.361Z,35.37
2018-07-27T06:31:39.945Z,35.40
2018-07-27T06:32:40.523Z,35.71
2018-07-27T06:33:41.103Z,35.71
2018-07-27T06:34:41.673Z,35.89
2018-07-27T06:35:42.245Z,36.08
2018-07-27T06:36:42.827Z,36.11
2018-07-27T06:37:43.406Z,36.11
2018-07-27T06:38:43.985Z,36.08
2018-07-27T06:39:44.577Z,36.08
2018-07-27T06:40:45.155Z,36.06
2018-07-27T06:41:45.735Z,36.08
2018-07-27T06:42:46.307Z,36.20
2018-07-27T06:43:46.891Z,36.38
2018-07-27T06:44:47.469Z,36.64
2018-07-27T06:45:48.043Z,36.39
2018-07-27T06:46:48.622Z,36.75
2018-07-27T06:47:49.207Z,36.99
2018-07-27T06:48:49.782Z,36.89
2018-07-27T06:49:50.362Z,37.02
2018-07-27T06:50:50.941Z,36.97
2018-07-27T06:51:51.533Z,37.07
2018-07-27T06:52:52.100Z,37.43
2018-07-27T06:53:52.681Z,37.42
2018-07-27T06:54:53.259Z,37.51
2018-07-27T06:55:53.842Z,37.33
2018-07-27T06:56:54.419Z,36.95
2018-07-27T06:57:55.003Z,36.95
2018-07-27T06:58:55.590Z,36.70
2018-07-27T06:59:56.168Z,36.68
2018-07-27T07:00:56.746Z,36.92
2018-07-27T07:01:57.323Z,36.64
2018-07-27T07:02:57.897Z,36.41
2018-07-27T07:03:58.477Z,36.83
2018-07-27T07:04:59.056Z,36.75
2018-07-27T07:05:59.645Z,36.76
2018-07-27T07:07:00.223Z,36.52
2018-07-27T07:08:00.805Z,36.31
2018-07-27T07:09:01.400Z,36.36
2018-07-27T07:10:01.958Z,36.21
2018-07-27T07:11:02.536Z,36.07
2018-07-27T07:12:03.114Z,36.14
2018-07-27T07:13:03.699Z,35.98
2018-07-27T07:14:04.268Z,36.20
2018-07-27T07:15:04.845Z,36.14
2018-07-27T07:16:05.420Z,36.12
2018-07-27T07:17:05.996Z,36.23
2018-07-27T07:18:06.575Z,35.96
2018-07-27T07:19:07.150Z,35.96
2018-07-27T07:20:07.727Z,36.15
2018-07-27T07:21:08.303Z,36.07
2018-07-27T07:22:08.877Z,36.17
2018-07-27T07:23:09.456Z,36.21
2018-07-27T07:24:10.035Z,36.23
2018-07-27T07:25:10.709Z,36.20
2018-07-27T07:26:11.640Z,36.48
2018-07-27T07:27:11.753Z,36.42
2018-07-27T07:28:12.333Z,36.46
2018-07-27T07:29:12.917Z,36.39
2018-07-27T07:30:13.495Z,36.31
2018-07-27T07:31:14.074Z,36.06
2018-07-27T07:32:14.651Z,36.08
2018-07-27T07:33:15.267Z,35.98
2018-07-27T07:34:15.804Z,35.86
2018-07-27T07:35:16.381Z,35.92
2018-07-27T07:36:16.962Z,36.08
2018-07-27T07:37:17.542Z,36.34
2018-07-27T07:38:18.124Z,36.52
2018-07-27T07:39:18.706Z,36.63
2018-07-27T07:40:19.282Z,36.71
2018-07-27T07:41:19.861Z,37.13
2018-07-27T07:42:20.437Z,37.48
2018-07-27T07:43:21.084Z,37.43
2018-07-27T07:44:21.642Z,37.51
2018-07-27T07:45:22.226Z,37.55
2018-07-27T07:46:22.803Z,37.43
2018-07-27T07:47:23.375Z,37.69
2018-07-27T07:48:23.958Z,37.76
2018-07-27T07:49:24.599Z,37.48
2018-07-27T07:50:25.118Z,37.46
2018-07-27T07:51:25.697Z,37.28
2018-07-27T07:52:26.276Z,37.21
2018-07-27T07:53:26.853Z,37.12
2018-07-27T07:54:27.432Z,37.10
2018-07-27T07:55:28.012Z,36.98
2018-07-27T07:56:28.594Z,37.08
2018-07-27T07:57:29.183Z,37.16
2018-07-27T07:58:29.773Z,37.01
2018-07-27T07:59:30.339Z,37.07
2018-07-27T08:00:30.916Z,37.13
2018-07-27T08:01:31.494Z,37.24
2018-07-27T08:02:32.075Z,37.26
2018-07-27T08:03:32.656Z,37.47
2018-07-27T08:04:33.235Z,37.62
2018-07-27T08:05:33.866Z,37.95
2018-07-27T08:06:34.399Z,38.22
2018-07-27T08:07:34.979Z,38.18
2018-07-27T08:08:35.558Z,37.92
2018-07-27T08:09:36.141Z,37.64
2018-07-27T08:10:36.720Z,37.51
2018-07-27T08:11:37.303Z,37.64
2018-07-27T08:12:38.872Z,38.05
2018-07-27T08:13:39.456Z,38.24
2018-07-27T08:14:40.030Z,38.17
2018-07-27T08:15:40.613Z,37.88
2018-07-27T08:16:41.192Z,37.61
2018-07-27T08:17:41.772Z,37.76
2018-07-27T08:18:42.361Z,37.67
2018-07-27T08:19:42.936Z,37.78
2018-07-27T08:20:43.515Z,37.96
2018-07-27T08:21:44.097Z,38.18
2018-07-27T08:22:44.690Z,38.12
2018-07-27T08:23:45.269Z,37.86
2018-07-27T08:24:45.849Z,37.66
2018-07-27T08:25:46.425Z,37.70
2018-07-27T08:26:47.002Z,38.04
2018-07-27T08:27:47.580Z,38.37
2018-07-27T08:28:48.161Z,38.54
2018-07-27T08:29:48.738Z,38.68
2018-07-27T08:30:49.329Z,38.49
2018-07-27T08:31:49.915Z,38.26
2018-07-27T08:32:50.500Z,38.11
2018-07-27T08:33:51.079Z,37.54
2018-07-27T08:34:51.658Z,37.74
2018-07-27T08:35:52.230Z,37.62
2018-07-27T08:36:52.811Z,37.71
2018-07-27T08:37:53.387Z,37.73
2018-07-27T08:38:53.995Z,37.71
2018-07-27T08:39:54.568Z,37.62
2018-07-27T08:40:55.146Z,37.51
2018-07-27T08:41:55.724Z,37.64
2018-07-27T08:42:56.304Z,37.59
2018-07-27T08:43:56.882Z,37.55
2018-07-27T08:44:57.464Z,37.73
2018-07-27T08:45:58.040Z,37.90
2018-07-27T08:46:58.625Z,37.85
2018-07-27T08:47:59.200Z,37.85
2018-07-27T08:48:59.800Z,37.88
2018-07-27T08:50:00.399Z,37.73
2018-07-27T08:51:00.970Z,38.03
2018-07-27T08:52:01.555Z,38.12
2018-07-27T08:53:02.137Z,37.73
2018-07-27T08:54:02.712Z,37.43
2018-07-27T08:55:03.313Z,37.47
2018-07-27T08:56:03.892Z,37.48
2018-07-27T08:57:04.472Z,37.70
2018-07-27T08:58:05.057Z,37.95
2018-07-27T08:59:05.634Z,37.89
2018-07-27T09:00:06.209Z,37.98
2018-07-27T09:01:06.781Z,37.93
2018-07-27T09:02:07.364Z,37.58
2018-07-27T09:03:07.971Z,37.56
2018-07-27T09:04:08.526Z,37.70
2018-07-27T09:05:09.101Z,37.51
2018-07-27T09:06:09.678Z,37.19
2018-07-27T09:07:10.254Z,37.21
2018-07-27T09:08:10.837Z,37.39
2018-07-27T09:09:11.414Z,37.47
2018-07-27T09:10:12.004Z,37.74
2018-07-27T09:11:12.572Z,37.76
2018-07-27T09:12:13.152Z,37.67
2018-07-27T09:13:13.729Z,37.73
2018-07-27T09:14:14.312Z,37.67
2018-07-27T09:15:14.888Z,37.56
2018-07-27T09:16:15.459Z,37.56
2018-07-27T09:17:16.043Z,37.74
2018-07-27T09:18:16.627Z,37.48
2018-07-27T09:19:17.194Z,37.17
2018-07-27T09:20:17.795Z,37.13
2018-07-27T09:21:18.407Z,37.19
2018-07-27T09:22:19.038Z,37.26
2018-07-27T09:23:19.615Z,37.29
2018-07-27T09:24:20.208Z,37.36
2018-07-27T09:25:20.994Z,37.42
2018-07-27T09:26:21.321Z,37.50
2018-07-27T09:27:21.899Z,37.21
2018-07-27T09:28:22.472Z,37.33
2018-07-27T09:29:23.047Z,37.59
2018-07-27T09:30:23.623Z,37.41
2018-07-27T09:31:24.201Z,37.32
2018-07-27T09:32:24.781Z,37.10
2018-07-27T09:33:25.364Z,37.05
2018-07-27T09:34:25.934Z,37.14
2018-07-27T09:35:26.521Z,37.19
2018-07-27T09:36:27.088Z,36.61
2018-07-27T09:37:27.667Z,36.41
2018-07-27T09:38:28.255Z,36.58
2018-07-27T09:39:28.845Z,36.73
2018-07-27T09:40:29.453Z,36.58
2018-07-27T09:41:30.022Z,36.75
2018-07-27T09:42:30.592Z,36.87
2018-07-27T09:43:31.167Z,36.97
2018-07-27T09:44:31.745Z,37.10
2018-07-27T09:45:32.324Z,37.04
2018-07-27T09:46:32.948Z,37.10
2018-07-27T09:47:33.479Z,36.97
2018-07-27T09:48:34.058Z,36.97
2018-07-27T09:49:34.638Z,36.85
2018-07-27T09:50:35.212Z,36.54
2018-07-27T09:51:35.814Z,36.87
2018-07-27T09:52:36.373Z,36.87
2018-07-27T09:53:36.945Z,37.12
2018-07-27T09:54:37.521Z,37.41
2018-07-27T09:55:38.097Z,37.66
2018-07-27T09:56:38.682Z,37.86
2018-07-27T09:57:39.289Z,37.96
2018-07-27T09:58:39.897Z,38.23
2018-07-27T09:59:40.481Z,38.20
2018-07-27T10:00:41.113Z,37.74
2018-07-27T10:01:41.690Z,37.41
2018-07-27T10:02:42.259Z,37.35
2018-07-27T10:03:42.834Z,37.48
2018-07-27T10:04:43.418Z,37.26
2018-07-27T10:05:44.016Z,37.48
2018-07-27T10:06:44.568Z,37.85
2018-07-27T10:07:45.173Z,38.05
2018-07-27T10:08:45.738Z,38.20
2018-07-27T10:09:46.312Z,38.04
2018-07-27T10:10:46.891Z,37.88
2018-07-27T10:11:47.468Z,37.95
2018-07-27T10:12:48.055Z,37.77
2018-07-27T10:13:48.609Z,37.73
2018-07-27T10:14:49.189Z,37.83
2018-07-27T10:15:49.769Z,37.92
2018-07-27T10:16:50.343Z,37.83
2018-07-27T10:17:50.930Z,37.71
2018-07-27T10:18:51.504Z,37.92
2018-07-27T10:19:52.079Z,37.99
2018-07-27T10:20:52.655Z,38.32
2018-07-27T10:21:53.236Z,38.39
2018-07-27T10:22:53.815Z,38.33
2018-07-27T10:23:54.393Z,38.34
2018-07-27T10:24:54.969Z,38.36
2018-07-27T10:25:55.546Z,38.23
2018-07-27T10:26:56.119Z,38.39
2018-07-27T10:27:56.696Z,38.60
2018-07-27T10:28:57.276Z,38.29
2018-07-27T10:29:57.865Z,38.36
2018-07-27T10:30:58.437Z,38.60
2018-07-27T10:31:59.005Z,38.36
2018-07-27T10:32:59.585Z,38.32
2018-07-27T10:34:00.162Z,38.51
2018-07-27T10:35:00.737Z,38.37
2018-07-27T10:36:01.312Z,38.66
2018-07-27T10:37:01.887Z,38.95
2018-07-27T10:38:02.464Z,39.06
2018-07-27T10:39:03.043Z,39.05
2018-07-27T10:40:03.631Z,39.06
2018-07-27T10:41:04.196Z,38.85
2018-07-27T10:42:04.775Z,38.90
2018-07-27T10:43:05.355Z,38.98
2018-07-27T10:44:05.932Z,39.12
2018-07-27T10:45:06.518Z,39.40
2018-07-27T10:46:07.089Z,39.51
2018-07-27T10:47:07.670Z,39.71
2018-07-27T10:48:08.252Z,39.70
2018-07-27T10:49:08.828Z,39.70
2018-07-27T10:50:09.419Z,39.76
2018-07-27T10:51:09.990Z,39.91
2018-07-27T10:52:10.567Z,39.91
2018-07-27T10:53:11.147Z,39.59
2018-07-27T10:54:11.729Z,39.57
2018-07-27T10:55:12.314Z,39.36
2018-07-27T10:56:12.894Z,39.20
2018-07-27T10:57:13.475Z,39.10
2018-07-27T10:58:14.047Z,39.05
2018-07-27T10:59:14.624Z,39.23
2018-07-27T11:00:15.204Z,39.33
2018-07-27T11:01:15.786Z,39.40
2018-07-27T11:02:16.364Z,39.47
2018-07-27T11:03:16.940Z,39.64
2018-07-27T11:04:17.509Z,39.74
2018-07-27T11:05:18.083Z,39.69
2018-07-27T11:06:18.663Z,39.61
2018-07-27T11:07:19.246Z,39.35
2018-07-27T11:08:19.831Z,39.24
2018-07-27T11:09:20.413Z,39.08
2018-07-27T11:10:20.995Z,39.09
2018-07-27T11:11:21.573Z,39.14
2018-07-27T11:12:22.152Z,39.06
2018-07-27T11:13:22.731Z,38.55
2018-07-27T11:14:23.309Z,38.73
2018-07-27T11:15:23.887Z,39.05
2018-07-27T11:16:24.522Z,39.32
2018-07-27T11:17:25.097Z,39.28
2018-07-27T11:18:25.611Z,39.35
2018-07-27T11:19:26.194Z,39.54
2018-07-27T11:20:26.771Z,39.73
2018-07-27T11:21:27.346Z,39.69
2018-07-27T11:22:27.921Z,39.86
2018-07-27T11:23:28.496Z,39.59
2018-07-27T11:24:29.073Z,39.36
2018-07-27T11:25:29.675Z,39.37
2018-07-27T11:26:30.221Z,39.55
2018-07-27T11:27:30.805Z,39.81
2018-07-27T11:28:31.381Z,40.21
2018-07-27T11:29:31.958Z,40.59
2018-07-27T11:30:32.538Z,40.52
2018-07-27T11:31:33.165Z,40.45
2018-07-27T11:32:33.791Z,40.47
2018-07-27T11:33:34.379Z,40.17
2018-07-27T11:34:34.957Z,40.32
2018-07-27T11:35:35.533Z,40.53
2018-07-27T11:36:36.113Z,40.34
2018-07-27T11:37:36.693Z,40.17
2018-07-27T11:38:37.262Z,39.95
2018-07-27T11:39:37.842Z,39.84
2018-07-27T11:40:38.418Z,39.69
2018-07-27T11:41:38.997Z,39.88
2018-07-27T11:42:39.655Z,39.98
2018-07-27T11:43:40.181Z,40.23
2018-07-27T11:44:40.762Z,40.14
2018-07-27T11:45:41.344Z,40.21
2018-07-27T11:46:41.915Z,40.23
2018-07-27T11:47:42.497Z,40.43
2018-07-27T11:48:43.075Z,40.11
2018-07-27T11:49:43.651Z,39.77
2018-07-27T11:50:44.221Z,40.20
2018-07-27T11:51:44.803Z,40.52
2018-07-27T11:52:45.383Z,40.57
2018-07-27T11:53:45.958Z,40.62
2018-07-27T11:54:46.536Z,40.68
2018-07-27T11:55:47.112Z,40.76
2018-07-27T11:56:47.688Z,40.84
2018-07-27T11:57:48.273Z,40.83
2018-07-27T11:58:48.855Z,40.93
2018-07-27T11:59:49.436Z,40.50
2018-07-27T12:00:50.032Z,40.50
2018-07-27T12:01:50.621Z,40.61
2018-07-27T12:02:51.189Z,40.96
2018-07-27T12:03:51.775Z,40.84
2018-07-27T12:04:52.362Z,40.53
2018-07-27T12:05:53.017Z,40.29
2018-07-27T12:06:53.551Z,40.47
2018-07-27T12:07:54.136Z,40.26
2018-07-27T12:08:54.708Z,40.23
2018-07-27T12:09:55.289Z,40.18
2018-07-27T12:10:55.868Z,40.25
2018-07-27T12:11:56.449Z,40.15
2018-07-27T12:12:57.030Z,40.29
2018-07-27T12:13:57.744Z,40.71
2018-07-27T12:14:58.280Z,40.80
2018-07-27T12:15:58.755Z,40.74
2018-07-27T12:16:59.345Z,40.52
2018-07-27T12:17:59.944Z,40.38
2018-07-27T12:19:00.501Z,40.53
2018-07-27T12:20:01.092Z,40.84
2018-07-27T12:21:01.820Z,40.81
2018-07-27T12:22:02.271Z,41.02
2018-07-27T12:23:02.831Z,40.99
2018-07-27T12:24:03.400Z,40.83
2018-07-27T12:25:03.997Z,40.41
2018-07-27T12:26:04.564Z,40.38
2018-07-27T12:27:05.206Z,40.75
2018-07-27T12:28:05.723Z,40.89
2018-07-27T12:29:06.300Z,40.96
2018-07-27T12:30:06.881Z,40.81
2018-07-27T12:31:07.465Z,40.83
2018-07-27T12:32:08.076Z,40.52
2018-07-27T12:33:08.640Z,40.64
2018-07-27T12:34:09.221Z,40.78
2018-07-27T12:35:09.804Z,40.90
2018-07-27T12:36:10.379Z,40.75
2018-07-27T12:37:10.963Z,40.49
2018-07-27T12:38:11.561Z,40.32
2018-07-27T12:39:12.121Z,40.05
2018-07-27T12:40:12.704Z,39.89
2018-07-27T12:41:13.293Z,40.26
2018-07-27T12:42:13.868Z,40.30
2018-07-27T12:43:14.460Z,40.26
2018-07-27T12:44:15.156Z,40.25
2018-07-27T12:45:15.773Z,40.14
2018-07-27T12:46:16.349Z,40.05
2018-07-27T12:47:16.931Z,40.27
2018-07-27T12:48:17.511Z,40.69
2018-07-27T12:49:18.133Z,41.24
2018-07-27T12:50:18.680Z,41.71
2018-07-27T12:51:19.326Z,42.16
2018-07-27T12:52:19.828Z,42.23
2018-07-27T12:53:20.412Z,41.47
2018-07-27T12:54:20.992Z,41.44
2018-07-27T12:55:21.569Z,41.62
2018-07-27T12:56:22.148Z,41.62
2018-07-27T12:57:22.733Z,41.85
2018-07-27T12:58:24.304Z,41.62
2018-07-27T12:59:24.933Z,41.54
2018-07-27T13:00:25.463Z,41.44